sensor_id;sensor_type;location;lat;lon;timestamp;P1;durP1;ratioP1;P2;durP2;ratioP2
23187;SDS011;11762;59.878;17.686;2023-04-25T00:02:23;11.90;;;6.37;;
23187;SDS011;11762;59.878;17.686;2023-04-25T00:04:51;12.83;;;5.80;;
23187;SDS011;11762;59.878;17.686;2023-04-25T00:07:18;12.23;;;5.97;;
23187;SDS011;11762;59.878;17.686;2023-04-25T00:09:46;12.77;;;6.57;;
23187;SDS011;11762;59.878;17.686;2023-04-25T00:12:13;11.20;;;6.67;;
23187;SDS011;11762;59.878;17.686;2023-04-25T00:14:42;14.63;;;6.03;;
23187;SDS011;11762;59.878;17.686;2023-04-25T00:17:10;15.60;;;6.07;;
23187;SDS011;11762;59.878;17.686;2023-04-25T00:19:37;12.90;;;5.93;;
23187;SDS011;11762;59.878;17.686;2023-04-25T00:22:04;15.27;;;5.83;;
23187;SDS011;11762;59.878;17.686;2023-04-25T00:24:32;15.00;;;5.67;;
23187;SDS011;11762;59.878;17.686;2023-04-25T00:27:00;11.23;;;6.03;;
23187;SDS011;11762;59.878;17.686;2023-04-25T00:29:27;15.23;;;6.73;;
23187;SDS011;11762;59.878;17.686;2023-04-25T00:31:55;9.07;;;5.70;;
23187;SDS011;11762;59.878;17.686;2023-04-25T00:34:22;12.83;;;6.53;;
23187;SDS011;11762;59.878;17.686;2023-04-25T00:36:49;10.80;;;6.17;;
23187;SDS011;11762;59.878;17.686;2023-04-25T00:39:16;11.13;;;6.57;;
23187;SDS011;11762;59.878;17.686;2023-04-25T00:41:43;12.03;;;6.67;;
23187;SDS011;11762;59.878;17.686;2023-04-25T00:44:12;12.63;;;5.53;;
23187;SDS011;11762;59.878;17.686;2023-04-25T00:46:42;9.13;;;5.50;;
23187;SDS011;11762;59.878;17.686;2023-04-25T00:49:09;12.97;;;6.10;;
23187;SDS011;11762;59.878;17.686;2023-04-25T00:51:40;11.63;;;5.97;;
23187;SDS011;11762;59.878;17.686;2023-04-25T00:54:09;10.07;;;5.73;;
23187;SDS011;11762;59.878;17.686;2023-04-25T00:56:36;12.23;;;5.50;;
23187;SDS011;11762;59.878;17.686;2023-04-25T00:59:03;9.73;;;5.63;;
23187;SDS011;11762;59.878;17.686;2023-04-25T01:01:32;10.67;;;6.07;;
23187;SDS011;11762;59.878;17.686;2023-04-25T01:04:00;12.67;;;6.80;;
23187;SDS011;11762;59.878;17.686;2023-04-25T01:06:27;10.70;;;6.67;;
23187;SDS011;11762;59.878;17.686;2023-04-25T01:08:55;14.37;;;7.00;;
23187;SDS011;11762;59.878;17.686;2023-04-25T01:11:22;13.63;;;6.23;;
23187;SDS011;11762;59.878;17.686;2023-04-25T01:13:50;12.33;;;6.50;;
23187;SDS011;11762;59.878;17.686;2023-04-25T01:16:17;13.27;;;6.37;;
23187;SDS011;11762;59.878;17.686;2023-04-25T01:18:46;10.60;;;6.00;;
23187;SDS011;11762;59.878;17.686;2023-04-25T01:21:17;9.77;;;5.83;;
23187;SDS011;11762;59.878;17.686;2023-04-25T01:23:44;15.93;;;6.93;;
23187;SDS011;11762;59.878;17.686;2023-04-25T01:26:11;13.43;;;5.80;;
23187;SDS011;11762;59.878;17.686;2023-04-25T01:28:39;13.27;;;6.00;;
23187;SDS011;11762;59.878;17.686;2023-04-25T01:31:06;10.37;;;6.00;;
23187;SDS011;11762;59.878;17.686;2023-04-25T01:33:33;9.80;;;6.17;;
23187;SDS011;11762;59.878;17.686;2023-04-25T01:36:01;12.17;;;6.20;;
23187;SDS011;11762;59.878;17.686;2023-04-25T01:38:30;13.60;;;6.13;;
23187;SDS011;11762;59.878;17.686;2023-04-25T01:40:58;13.17;;;6.27;;
23187;SDS011;11762;59.878;17.686;2023-04-25T01:43:27;12.40;;;7.03;;
23187;SDS011;11762;59.878;17.686;2023-04-25T01:45:54;13.17;;;6.33;;
23187;SDS011;11762;59.878;17.686;2023-04-25T01:48:22;15.93;;;6.70;;
23187;SDS011;11762;59.878;17.686;2023-04-25T01:50:49;10.30;;;6.27;;
23187;SDS011;11762;59.878;17.686;2023-04-25T01:53:16;13.93;;;6.70;;
23187;SDS011;11762;59.878;17.686;2023-04-25T01:55:45;11.63;;;6.13;;
23187;SDS011;11762;59.878;17.686;2023-04-25T01:58:12;15.07;;;6.17;;
23187;SDS011;11762;59.878;17.686;2023-04-25T02:00:39;10.67;;;5.50;;
23187;SDS011;11762;59.878;17.686;2023-04-25T02:03:06;17.87;;;5.60;;
23187;SDS011;11762;59.878;17.686;2023-04-25T02:05:34;12.03;;;5.57;;
23187;SDS011;11762;59.878;17.686;2023-04-25T02:08:02;12.20;;;5.63;;
23187;SDS011;11762;59.878;17.686;2023-04-25T02:10:30;14.40;;;5.90;;
23187;SDS011;11762;59.878;17.686;2023-04-25T02:12:59;14.23;;;5.37;;
23187;SDS011;11762;59.878;17.686;2023-04-25T02:15:26;12.40;;;5.10;;
23187;SDS011;11762;59.878;17.686;2023-04-25T02:17:53;12.87;;;5.47;;
23187;SDS011;11762;59.878;17.686;2023-04-25T02:20:21;9.90;;;4.83;;
23187;SDS011;11762;59.878;17.686;2023-04-25T02:22:49;11.87;;;5.73;;
23187;SDS011;11762;59.878;17.686;2023-04-25T02:25:16;12.63;;;5.40;;
23187;SDS011;11762;59.878;17.686;2023-04-25T02:27:45;10.53;;;4.57;;
23187;SDS011;11762;59.878;17.686;2023-04-25T02:30:14;8.07;;;4.67;;
23187;SDS011;11762;59.878;17.686;2023-04-25T02:32:41;12.30;;;5.33;;
23187;SDS011;11762;59.878;17.686;2023-04-25T02:35:08;8.87;;;5.20;;
23187;SDS011;11762;59.878;17.686;2023-04-25T02:37:38;9.93;;;4.77;;
23187;SDS011;11762;59.878;17.686;2023-04-25T02:40:06;9.70;;;5.27;;
23187;SDS011;11762;59.878;17.686;2023-04-25T02:42:34;10.40;;;5.40;;
23187;SDS011;11762;59.878;17.686;2023-04-25T02:45:02;9.00;;;4.83;;
23187;SDS011;11762;59.878;17.686;2023-04-25T02:47:30;10.47;;;5.03;;
23187;SDS011;11762;59.878;17.686;2023-04-25T02:49:57;10.87;;;4.80;;
23187;SDS011;11762;59.878;17.686;2023-04-25T02:52:24;10.00;;;5.10;;
23187;SDS011;11762;59.878;17.686;2023-04-25T02:54:51;10.53;;;5.40;;
23187;SDS011;11762;59.878;17.686;2023-04-25T02:57:18;7.87;;;4.20;;
23187;SDS011;11762;59.878;17.686;2023-04-25T02:59:46;8.20;;;4.97;;
23187;SDS011;11762;59.878;17.686;2023-04-25T03:02:13;9.97;;;5.07;;
23187;SDS011;11762;59.878;17.686;2023-04-25T03:04:41;13.20;;;4.93;;
23187;SDS011;11762;59.878;17.686;2023-04-25T03:07:09;8.97;;;4.83;;
23187;SDS011;11762;59.878;17.686;2023-04-25T03:09:36;9.70;;;4.70;;
23187;SDS011;11762;59.878;17.686;2023-04-25T03:12:03;8.10;;;4.60;;
23187;SDS011;11762;59.878;17.686;2023-04-25T03:14:31;8.67;;;4.90;;
23187;SDS011;11762;59.878;17.686;2023-04-25T03:16:58;11.53;;;4.80;;
23187;SDS011;11762;59.878;17.686;2023-04-25T03:19:25;9.43;;;4.77;;
23187;SDS011;11762;59.878;17.686;2023-04-25T03:21:53;9.20;;;4.37;;
23187;SDS011;11762;59.878;17.686;2023-04-25T03:24:21;12.03;;;4.80;;
23187;SDS011;11762;59.878;17.686;2023-04-25T03:26:48;9.77;;;4.63;;
23187;SDS011;11762;59.878;17.686;2023-04-25T03:29:15;8.00;;;4.17;;
23187;SDS011;11762;59.878;17.686;2023-04-25T03:31:42;9.10;;;4.13;;
23187;SDS011;11762;59.878;17.686;2023-04-25T03:34:09;8.10;;;4.20;;
23187;SDS011;11762;59.878;17.686;2023-04-25T03:36:36;9.00;;;4.07;;
23187;SDS011;11762;59.878;17.686;2023-04-25T03:39:05;10.37;;;3.80;;
23187;SDS011;11762;59.878;17.686;2023-04-25T03:41:32;12.50;;;3.83;;
23187;SDS011;11762;59.878;17.686;2023-04-25T03:43:59;13.13;;;5.40;;
23187;SDS011;11762;59.878;17.686;2023-04-25T03:46:26;8.13;;;4.30;;
23187;SDS011;11762;59.878;17.686;2023-04-25T03:48:53;11.73;;;4.17;;
23187;SDS011;11762;59.878;17.686;2023-04-25T03:51:20;11.17;;;3.93;;
23187;SDS011;11762;59.878;17.686;2023-04-25T03:53:47;7.03;;;3.63;;
23187;SDS011;11762;59.878;17.686;2023-04-25T03:56:16;8.40;;;4.10;;
23187;SDS011;11762;59.878;17.686;2023-04-25T03:58:43;8.23;;;3.53;;
23187;SDS011;11762;59.878;17.686;2023-04-25T04:01:10;8.10;;;4.00;;
23187;SDS011;11762;59.878;17.686;2023-04-25T04:03:37;9.67;;;3.90;;
23187;SDS011;11762;59.878;17.686;2023-04-25T04:06:04;8.63;;;4.27;;
23187;SDS011;11762;59.878;17.686;2023-04-25T04:08:32;6.57;;;3.43;;
23187;SDS011;11762;59.878;17.686;2023-04-25T04:10:59;7.93;;;4.13;;
23187;SDS011;11762;59.878;17.686;2023-04-25T04:13:28;6.37;;;3.40;;
23187;SDS011;11762;59.878;17.686;2023-04-25T04:15:55;8.27;;;4.07;;
23187;SDS011;11762;59.878;17.686;2023-04-25T04:18:23;12.60;;;4.20;;
23187;SDS011;11762;59.878;17.686;2023-04-25T04:20:50;6.80;;;3.73;;
23187;SDS011;11762;59.878;17.686;2023-04-25T04:23:17;8.70;;;3.90;;
23187;SDS011;11762;59.878;17.686;2023-04-25T04:25:45;7.73;;;4.33;;
23187;SDS011;11762;59.878;17.686;2023-04-25T04:28:13;9.27;;;3.93;;
23187;SDS011;11762;59.878;17.686;2023-04-25T04:30:42;8.37;;;4.03;;
23187;SDS011;11762;59.878;17.686;2023-04-25T04:33:11;7.47;;;3.83;;
23187;SDS011;11762;59.878;17.686;2023-04-25T04:35:38;8.30;;;3.80;;
23187;SDS011;11762;59.878;17.686;2023-04-25T04:38:06;7.20;;;3.60;;
23187;SDS011;11762;59.878;17.686;2023-04-25T04:40:34;11.73;;;4.23;;
23187;SDS011;11762;59.878;17.686;2023-04-25T04:43:01;8.53;;;4.03;;
23187;SDS011;11762;59.878;17.686;2023-04-25T04:45:28;9.13;;;3.53;;
23187;SDS011;11762;59.878;17.686;2023-04-25T04:47:56;9.23;;;3.83;;
23187;SDS011;11762;59.878;17.686;2023-04-25T04:50:23;7.27;;;3.87;;
23187;SDS011;11762;59.878;17.686;2023-04-25T04:52:51;9.63;;;3.93;;
23187;SDS011;11762;59.878;17.686;2023-04-25T04:55:20;10.83;;;4.20;;
23187;SDS011;11762;59.878;17.686;2023-04-25T04:57:47;10.27;;;4.60;;
23187;SDS011;11762;59.878;17.686;2023-04-25T05:00:14;8.77;;;3.90;;
23187;SDS011;11762;59.878;17.686;2023-04-25T05:02:42;7.47;;;3.33;;
23187;SDS011;11762;59.878;17.686;2023-04-25T05:05:10;8.03;;;3.90;;
23187;SDS011;11762;59.878;17.686;2023-04-25T05:07:37;11.10;;;4.33;;
23187;SDS011;11762;59.878;17.686;2023-04-25T05:10:05;7.37;;;3.57;;
23187;SDS011;11762;59.878;17.686;2023-04-25T05:12:32;10.67;;;3.53;;
23187;SDS011;11762;59.878;17.686;2023-04-25T05:15:00;8.60;;;3.23;;
23187;SDS011;11762;59.878;17.686;2023-04-25T05:17:27;14.43;;;4.30;;
23187;SDS011;11762;59.878;17.686;2023-04-25T05:19:54;9.83;;;3.47;;
23187;SDS011;11762;59.878;17.686;2023-04-25T05:22:22;5.70;;;2.80;;
23187;SDS011;11762;59.878;17.686;2023-04-25T05:24:49;7.17;;;3.10;;
23187;SDS011;11762;59.878;17.686;2023-04-25T05:27:17;9.73;;;3.40;;
23187;SDS011;11762;59.878;17.686;2023-04-25T05:29:44;9.27;;;3.10;;
23187;SDS011;11762;59.878;17.686;2023-04-25T05:32:11;9.20;;;4.40;;
23187;SDS011;11762;59.878;17.686;2023-04-25T05:34:38;7.70;;;3.20;;
23187;SDS011;11762;59.878;17.686;2023-04-25T05:37:07;7.73;;;3.53;;
23187;SDS011;11762;59.878;17.686;2023-04-25T05:39:35;6.90;;;3.40;;
23187;SDS011;11762;59.878;17.686;2023-04-25T05:42:02;7.90;;;3.17;;
23187;SDS011;11762;59.878;17.686;2023-04-25T05:44:30;7.57;;;3.67;;
23187;SDS011;11762;59.878;17.686;2023-04-25T05:46:57;8.53;;;3.77;;
23187;SDS011;11762;59.878;17.686;2023-04-25T05:49:24;5.47;;;2.87;;
23187;SDS011;11762;59.878;17.686;2023-04-25T05:51:51;7.33;;;3.07;;
23187;SDS011;11762;59.878;17.686;2023-04-25T05:54:18;6.50;;;2.90;;
23187;SDS011;11762;59.878;17.686;2023-04-25T05:56:46;7.13;;;2.90;;
23187;SDS011;11762;59.878;17.686;2023-04-25T05:59:13;10.97;;;3.53;;
23187;SDS011;11762;59.878;17.686;2023-04-25T06:01:41;5.63;;;2.60;;
23187;SDS011;11762;59.878;17.686;2023-04-25T06:04:08;7.47;;;2.60;;
23187;SDS011;11762;59.878;17.686;2023-04-25T06:06:35;6.63;;;2.97;;
23187;SDS011;11762;59.878;17.686;2023-04-25T06:09:02;5.30;;;2.40;;
23187;SDS011;11762;59.878;17.686;2023-04-25T06:11:29;7.33;;;2.90;;
23187;SDS011;11762;59.878;17.686;2023-04-25T06:13:58;6.97;;;2.73;;
23187;SDS011;11762;59.878;17.686;2023-04-25T06:16:25;5.20;;;2.43;;
23187;SDS011;11762;59.878;17.686;2023-04-25T06:18:52;7.03;;;2.93;;
23187;SDS011;11762;59.878;17.686;2023-04-25T06:21:19;8.17;;;2.90;;
23187;SDS011;11762;59.878;17.686;2023-04-25T06:23:46;8.57;;;2.80;;
23187;SDS011;11762;59.878;17.686;2023-04-25T06:26:13;5.37;;;2.60;;
23187;SDS011;11762;59.878;17.686;2023-04-25T06:28:40;11.67;;;3.60;;
23187;SDS011;11762;59.878;17.686;2023-04-25T06:31:09;5.97;;;2.77;;
23187;SDS011;11762;59.878;17.686;2023-04-25T06:33:36;8.00;;;2.73;;
23187;SDS011;11762;59.878;17.686;2023-04-25T06:36:03;8.57;;;3.00;;
23187;SDS011;11762;59.878;17.686;2023-04-25T06:38:31;5.50;;;2.57;;
23187;SDS011;11762;59.878;17.686;2023-04-25T06:40:59;5.13;;;2.37;;
23187;SDS011;11762;59.878;17.686;2023-04-25T06:43:26;5.57;;;2.17;;
23187;SDS011;11762;59.878;17.686;2023-04-25T06:45:57;9.13;;;2.33;;
23187;SDS011;11762;59.878;17.686;2023-04-25T06:48:26;8.17;;;2.70;;
23187;SDS011;11762;59.878;17.686;2023-04-25T06:50:53;4.37;;;2.20;;
23187;SDS011;11762;59.878;17.686;2023-04-25T06:53:21;6.47;;;2.17;;
23187;SDS011;11762;59.878;17.686;2023-04-25T06:55:48;4.73;;;2.30;;
23187;SDS011;11762;59.878;17.686;2023-04-25T06:58:15;6.07;;;2.10;;
23187;SDS011;11762;59.878;17.686;2023-04-25T07:00:42;5.40;;;2.07;;
23187;SDS011;11762;59.878;17.686;2023-04-25T07:03:09;5.67;;;2.17;;
23187;SDS011;11762;59.878;17.686;2023-04-25T07:05:38;8.63;;;2.07;;
23187;SDS011;11762;59.878;17.686;2023-04-25T07:08:05;6.67;;;2.07;;
23187;SDS011;11762;59.878;17.686;2023-04-25T07:10:32;6.07;;;2.40;;
23187;SDS011;11762;59.878;17.686;2023-04-25T07:13:00;9.93;;;2.13;;
23187;SDS011;11762;59.878;17.686;2023-04-25T07:15:27;4.80;;;2.10;;
23187;SDS011;11762;59.878;17.686;2023-04-25T07:17:54;7.77;;;2.50;;
23187;SDS011;11762;59.878;17.686;2023-04-25T07:20:21;5.30;;;2.20;;
23187;SDS011;11762;59.878;17.686;2023-04-25T07:22:49;4.80;;;2.20;;
23187;SDS011;11762;59.878;17.686;2023-04-25T07:25:16;8.00;;;2.27;;
23187;SDS011;11762;59.878;17.686;2023-04-25T07:27:43;8.40;;;2.07;;
23187;SDS011;11762;59.878;17.686;2023-04-25T07:30:11;5.27;;;2.37;;
23187;SDS011;11762;59.878;17.686;2023-04-25T07:32:38;5.33;;;2.73;;
23187;SDS011;11762;59.878;17.686;2023-04-25T07:35:06;7.13;;;3.10;;
23187;SDS011;11762;59.878;17.686;2023-04-25T07:37:33;6.20;;;2.60;;
23187;SDS011;11762;59.878;17.686;2023-04-25T07:40:02;5.50;;;2.27;;
23187;SDS011;11762;59.878;17.686;2023-04-25T07:42:30;5.07;;;1.80;;
23187;SDS011;11762;59.878;17.686;2023-04-25T07:44:57;4.33;;;1.63;;
23187;SDS011;11762;59.878;17.686;2023-04-25T07:47:24;3.40;;;1.63;;
23187;SDS011;11762;59.878;17.686;2023-04-25T07:49:51;4.10;;;2.00;;
23187;SDS011;11762;59.878;17.686;2023-04-25T07:52:18;4.97;;;1.60;;
23187;SDS011;11762;59.878;17.686;2023-04-25T07:54:46;4.07;;;1.80;;
23187;SDS011;11762;59.878;17.686;2023-04-25T07:57:15;6.77;;;1.90;;
23187;SDS011;11762;59.878;17.686;2023-04-25T07:59:43;5.13;;;1.63;;
23187;SDS011;11762;59.878;17.686;2023-04-25T08:02:10;2.73;;;1.30;;
23187;SDS011;11762;59.878;17.686;2023-04-25T08:04:37;2.87;;;1.40;;
23187;SDS011;11762;59.878;17.686;2023-04-25T08:07:04;3.00;;;1.17;;
23187;SDS011;11762;59.878;17.686;2023-04-25T08:09:31;3.37;;;1.43;;
23187;SDS011;11762;59.878;17.686;2023-04-25T08:12:02;6.10;;;1.70;;
23187;SDS011;11762;59.878;17.686;2023-04-25T08:14:30;4.50;;;1.70;;
23187;SDS011;11762;59.878;17.686;2023-04-25T08:17:01;3.07;;;1.40;;
23187;SDS011;11762;59.878;17.686;2023-04-25T08:19:28;3.27;;;1.20;;
23187;SDS011;11762;59.878;17.686;2023-04-25T08:21:55;4.83;;;1.50;;
23187;SDS011;11762;59.878;17.686;2023-04-25T08:24:22;4.37;;;1.20;;
23187;SDS011;11762;59.878;17.686;2023-04-25T08:26:50;1.90;;;0.90;;
23187;SDS011;11762;59.878;17.686;2023-04-25T08:29:17;2.83;;;1.30;;
23187;SDS011;11762;59.878;17.686;2023-04-25T08:31:46;4.30;;;1.20;;
23187;SDS011;11762;59.878;17.686;2023-04-25T08:34:13;4.10;;;1.40;;
23187;SDS011;11762;59.878;17.686;2023-04-25T08:36:40;4.70;;;1.70;;
23187;SDS011;11762;59.878;17.686;2023-04-25T08:39:07;3.73;;;1.60;;
23187;SDS011;11762;59.878;17.686;2023-04-25T08:41:35;2.80;;;1.10;;
23187;SDS011;11762;59.878;17.686;2023-04-25T08:44:03;2.70;;;1.33;;
23187;SDS011;11762;59.878;17.686;2023-04-25T08:46:31;2.63;;;1.30;;
23187;SDS011;11762;59.878;17.686;2023-04-25T08:49:01;3.47;;;1.37;;
23187;SDS011;11762;59.878;17.686;2023-04-25T08:51:29;3.70;;;1.57;;
23187;SDS011;11762;59.878;17.686;2023-04-25T08:54:00;2.83;;;1.27;;
23187;SDS011;11762;59.878;17.686;2023-04-25T08:56:34;3.93;;;1.73;;
23187;SDS011;11762;59.878;17.686;2023-04-25T08:59:01;3.27;;;1.60;;
23187;SDS011;11762;59.878;17.686;2023-04-25T09:01:28;3.67;;;1.60;;
23187;SDS011;11762;59.878;17.686;2023-04-25T09:03:57;3.10;;;1.20;;
23187;SDS011;11762;59.878;17.686;2023-04-25T09:06:25;3.83;;;1.67;;
23187;SDS011;11762;59.878;17.686;2023-04-25T09:08:53;2.63;;;1.50;;
23187;SDS011;11762;59.878;17.686;2023-04-25T09:11:20;3.30;;;1.60;;
23187;SDS011;11762;59.878;17.686;2023-04-25T09:13:47;3.43;;;1.70;;
23187;SDS011;11762;59.878;17.686;2023-04-25T09:16:14;3.03;;;1.57;;
23187;SDS011;11762;59.878;17.686;2023-04-25T09:18:44;3.90;;;1.60;;
23187;SDS011;11762;59.878;17.686;2023-04-25T09:21:12;3.57;;;1.63;;
23187;SDS011;11762;59.878;17.686;2023-04-25T09:23:43;3.83;;;1.73;;
23187;SDS011;11762;59.878;17.686;2023-04-25T09:26:10;7.43;;;1.80;;
23187;SDS011;11762;59.878;17.686;2023-04-25T09:28:42;3.67;;;1.80;;
23187;SDS011;11762;59.878;17.686;2023-04-25T09:31:09;5.03;;;2.20;;
23187;SDS011;11762;59.878;17.686;2023-04-25T09:33:37;5.97;;;1.80;;
23187;SDS011;11762;59.878;17.686;2023-04-25T09:36:05;5.03;;;2.30;;
23187;SDS011;11762;59.878;17.686;2023-04-25T09:38:39;6.03;;;2.97;;
23187;SDS011;11762;59.878;17.686;2023-04-25T09:41:09;6.40;;;2.57;;
23187;SDS011;11762;59.878;17.686;2023-04-25T09:43:37;4.27;;;2.20;;
23187;SDS011;11762;59.878;17.686;2023-04-25T09:46:07;5.80;;;2.90;;
23187;SDS011;11762;59.878;17.686;2023-04-25T09:48:36;4.50;;;2.40;;
23187;SDS011;11762;59.878;17.686;2023-04-25T09:51:03;5.93;;;2.90;;
23187;SDS011;11762;59.878;17.686;2023-04-25T09:53:32;8.63;;;3.37;;
23187;SDS011;11762;59.878;17.686;2023-04-25T09:56:00;10.13;;;4.43;;
23187;SDS011;11762;59.878;17.686;2023-04-25T09:58:31;6.70;;;3.43;;
23187;SDS011;11762;59.878;17.686;2023-04-25T10:00:59;7.10;;;3.37;;
23187;SDS011;11762;59.878;17.686;2023-04-25T10:03:29;6.17;;;2.60;;
23187;SDS011;11762;59.878;17.686;2023-04-25T10:05:57;5.97;;;2.70;;
23187;SDS011;11762;59.878;17.686;2023-04-25T10:08:26;4.83;;;2.43;;
23187;SDS011;11762;59.878;17.686;2023-04-25T10:10:58;4.43;;;2.27;;
23187;SDS011;11762;59.878;17.686;2023-04-25T10:13:29;4.40;;;2.00;;
23187;SDS011;11762;59.878;17.686;2023-04-25T10:15:58;7.23;;;2.63;;
23187;SDS011;11762;59.878;17.686;2023-04-25T10:18:25;6.87;;;2.87;;
23187;SDS011;11762;59.878;17.686;2023-04-25T10:20:53;9.23;;;2.60;;
23187;SDS011;11762;59.878;17.686;2023-04-25T10:23:21;4.63;;;2.07;;
23187;SDS011;11762;59.878;17.686;2023-04-25T10:25:49;2.77;;;1.70;;
23187;SDS011;11762;59.878;17.686;2023-04-25T10:28:19;4.43;;;2.03;;
23187;SDS011;11762;59.878;17.686;2023-04-25T10:31:00;5.80;;;2.37;;
23187;SDS011;11762;59.878;17.686;2023-04-25T10:33:29;6.13;;;2.30;;
23187;SDS011;11762;59.878;17.686;2023-04-25T10:36:05;5.10;;;2.03;;
23187;SDS011;11762;59.878;17.686;2023-04-25T10:38:35;6.47;;;2.33;;
23187;SDS011;11762;59.878;17.686;2023-04-25T10:41:03;3.53;;;1.93;;
23187;SDS011;11762;59.878;17.686;2023-04-25T10:43:35;5.63;;;2.03;;
23187;SDS011;11762;59.878;17.686;2023-04-25T10:46:12;3.07;;;1.50;;
23187;SDS011;11762;59.878;17.686;2023-04-25T10:48:43;4.73;;;1.93;;
23187;SDS011;11762;59.878;17.686;2023-04-25T10:51:16;5.13;;;1.80;;
23187;SDS011;11762;59.878;17.686;2023-04-25T10:53:44;3.57;;;1.97;;
23187;SDS011;11762;59.878;17.686;2023-04-25T10:56:11;3.77;;;1.77;;
23187;SDS011;11762;59.878;17.686;2023-04-25T10:58:44;3.93;;;2.23;;
23187;SDS011;11762;59.878;17.686;2023-04-25T11:01:12;6.63;;;2.70;;
23187;SDS011;11762;59.878;17.686;2023-04-25T11:03:40;5.27;;;2.20;;
23187;SDS011;11762;59.878;17.686;2023-04-25T11:06:10;5.60;;;2.37;;
23187;SDS011;11762;59.878;17.686;2023-04-25T11:08:47;5.03;;;2.37;;
23187;SDS011;11762;59.878;17.686;2023-04-25T11:11:16;4.60;;;2.30;;
23187;SDS011;11762;59.878;17.686;2023-04-25T11:13:46;5.20;;;2.40;;
23187;SDS011;11762;59.878;17.686;2023-04-25T11:16:14;5.23;;;2.53;;
23187;SDS011;11762;59.878;17.686;2023-04-25T11:18:42;5.23;;;2.60;;
23187;SDS011;11762;59.878;17.686;2023-04-25T11:21:09;5.23;;;2.50;;
23187;SDS011;11762;59.878;17.686;2023-04-25T11:23:36;4.60;;;2.53;;
23187;SDS011;11762;59.878;17.686;2023-04-25T11:26:04;5.10;;;2.90;;
23187;SDS011;11762;59.878;17.686;2023-04-25T11:28:31;5.10;;;2.30;;
23187;SDS011;11762;59.878;17.686;2023-04-25T11:30:59;5.00;;;2.70;;
23187;SDS011;11762;59.878;17.686;2023-04-25T11:33:26;4.93;;;2.83;;
23187;SDS011;11762;59.878;17.686;2023-04-25T11:35:54;3.77;;;2.23;;
23187;SDS011;11762;59.878;17.686;2023-04-25T11:38:22;3.83;;;2.10;;
23187;SDS011;11762;59.878;17.686;2023-04-25T11:40:51;5.40;;;2.80;;
23187;SDS011;11762;59.878;17.686;2023-04-25T11:43:19;3.70;;;2.13;;
23187;SDS011;11762;59.878;17.686;2023-04-25T11:45:47;3.67;;;2.17;;
23187;SDS011;11762;59.878;17.686;2023-04-25T11:48:17;4.97;;;2.50;;
23187;SDS011;11762;59.878;17.686;2023-04-25T11:50:44;4.93;;;2.40;;
23187;SDS011;11762;59.878;17.686;2023-04-25T11:53:11;5.60;;;2.63;;
23187;SDS011;11762;59.878;17.686;2023-04-25T11:55:38;5.47;;;2.10;;
23187;SDS011;11762;59.878;17.686;2023-04-25T11:58:06;5.87;;;2.63;;
23187;SDS011;11762;59.878;17.686;2023-04-25T12:00:33;4.30;;;2.40;;
23187;SDS011;11762;59.878;17.686;2023-04-25T12:03:01;4.90;;;2.53;;
23187;SDS011;11762;59.878;17.686;2023-04-25T12:05:30;6.10;;;2.83;;
23187;SDS011;11762;59.878;17.686;2023-04-25T12:08:09;5.40;;;2.33;;
23187;SDS011;11762;59.878;17.686;2023-04-25T12:10:37;5.30;;;2.57;;
23187;SDS011;11762;59.878;17.686;2023-04-25T12:13:18;5.60;;;2.63;;
23187;SDS011;11762;59.878;17.686;2023-04-25T12:15:46;4.27;;;2.40;;
23187;SDS011;11762;59.878;17.686;2023-04-25T12:18:13;6.23;;;2.60;;
23187;SDS011;11762;59.878;17.686;2023-04-25T12:20:42;4.30;;;2.33;;
23187;SDS011;11762;59.878;17.686;2023-04-25T12:23:09;4.43;;;2.47;;
23187;SDS011;11762;59.878;17.686;2023-04-25T12:25:38;3.97;;;2.70;;
23187;SDS011;11762;59.878;17.686;2023-04-25T12:28:13;4.43;;;2.77;;
23187;SDS011;11762;59.878;17.686;2023-04-25T12:30:52;4.03;;;2.37;;
23187;SDS011;11762;59.878;17.686;2023-04-25T12:33:20;4.40;;;2.30;;
23187;SDS011;11762;59.878;17.686;2023-04-25T12:35:48;4.60;;;2.20;;
23187;SDS011;11762;59.878;17.686;2023-04-25T12:38:20;4.60;;;2.33;;
23187;SDS011;11762;59.878;17.686;2023-04-25T12:40:48;5.43;;;2.77;;
23187;SDS011;11762;59.878;17.686;2023-04-25T12:43:15;6.77;;;2.77;;
23187;SDS011;11762;59.878;17.686;2023-04-25T12:45:42;7.60;;;2.57;;
23187;SDS011;11762;59.878;17.686;2023-04-25T12:48:09;5.77;;;3.27;;
23187;SDS011;11762;59.878;17.686;2023-04-25T12:50:36;5.50;;;3.63;;
23187;SDS011;11762;59.878;17.686;2023-04-25T12:53:04;6.03;;;3.00;;
23187;SDS011;11762;59.878;17.686;2023-04-25T12:55:31;5.83;;;2.87;;
23187;SDS011;11762;59.878;17.686;2023-04-25T12:57:58;6.07;;;2.90;;
23187;SDS011;11762;59.878;17.686;2023-04-25T13:00:26;6.07;;;2.63;;
23187;SDS011;11762;59.878;17.686;2023-04-25T13:02:53;4.33;;;2.80;;
23187;SDS011;11762;59.878;17.686;2023-04-25T13:05:20;4.43;;;2.70;;
23187;SDS011;11762;59.878;17.686;2023-04-25T13:07:47;6.93;;;3.10;;
23187;SDS011;11762;59.878;17.686;2023-04-25T13:10:15;4.53;;;2.40;;
23187;SDS011;11762;59.878;17.686;2023-04-25T13:12:43;6.57;;;3.30;;
23187;SDS011;11762;59.878;17.686;2023-04-25T13:15:10;7.77;;;3.30;;
23187;SDS011;11762;59.878;17.686;2023-04-25T13:17:37;5.07;;;2.83;;
23187;SDS011;11762;59.878;17.686;2023-04-25T13:20:05;5.27;;;3.03;;
23187;SDS011;11762;59.878;17.686;2023-04-25T13:22:34;7.60;;;3.43;;
23187;SDS011;11762;59.878;17.686;2023-04-25T13:25:03;9.03;;;3.37;;
23187;SDS011;11762;59.878;17.686;2023-04-25T13:27:32;5.10;;;3.17;;
23187;SDS011;11762;59.878;17.686;2023-04-25T13:30:00;6.97;;;3.07;;
23187;SDS011;11762;59.878;17.686;2023-04-25T13:32:32;6.90;;;2.93;;
23187;SDS011;11762;59.878;17.686;2023-04-25T13:35:01;8.40;;;2.93;;
23187;SDS011;11762;59.878;17.686;2023-04-25T13:37:28;8.37;;;3.00;;
23187;SDS011;11762;59.878;17.686;2023-04-25T13:39:58;4.30;;;2.70;;
23187;SDS011;11762;59.878;17.686;2023-04-25T13:42:25;5.97;;;2.70;;
23187;SDS011;11762;59.878;17.686;2023-04-25T13:44:54;5.07;;;2.93;;
23187;SDS011;11762;59.878;17.686;2023-04-25T13:47:21;6.63;;;2.73;;
23187;SDS011;11762;59.878;17.686;2023-04-25T13:49:49;5.80;;;3.13;;
23187;SDS011;11762;59.878;17.686;2023-04-25T13:52:16;3.90;;;2.40;;
23187;SDS011;11762;59.878;17.686;2023-04-25T13:54:43;7.43;;;3.17;;
23187;SDS011;11762;59.878;17.686;2023-04-25T13:57:10;4.60;;;2.53;;
23187;SDS011;11762;59.878;17.686;2023-04-25T13:59:37;6.60;;;2.87;;
23187;SDS011;11762;59.878;17.686;2023-04-25T14:02:07;4.53;;;2.70;;
23187;SDS011;11762;59.878;17.686;2023-04-25T14:04:34;4.43;;;3.00;;
23187;SDS011;11762;59.878;17.686;2023-04-25T14:07:01;7.73;;;2.93;;
23187;SDS011;11762;59.878;17.686;2023-04-25T14:09:30;5.50;;;3.07;;
23187;SDS011;11762;59.878;17.686;2023-04-25T14:11:57;3.27;;;1.97;;
23187;SDS011;11762;59.878;17.686;2023-04-25T14:14:24;5.83;;;2.47;;
23187;SDS011;11762;59.878;17.686;2023-04-25T14:16:51;4.80;;;2.27;;
23187;SDS011;11762;59.878;17.686;2023-04-25T14:19:21;7.80;;;2.77;;
23187;SDS011;11762;59.878;17.686;2023-04-25T14:21:48;6.63;;;3.00;;
23187;SDS011;11762;59.878;17.686;2023-04-25T14:24:15;5.50;;;3.13;;
23187;SDS011;11762;59.878;17.686;2023-04-25T14:26:44;5.57;;;2.80;;
23187;SDS011;11762;59.878;17.686;2023-04-25T14:29:11;7.80;;;3.33;;
23187;SDS011;11762;59.878;17.686;2023-04-25T14:31:38;5.27;;;3.37;;
23187;SDS011;11762;59.878;17.686;2023-04-25T14:34:06;7.93;;;3.30;;
23187;SDS011;11762;59.878;17.686;2023-04-25T14:36:34;6.73;;;2.50;;